Baker, Oregon
Current Conditions -  °F | °C
As of 6:53 AM on Monday 22 Dec 2014 (Local Time) from KBKE Reporting Station
Overcast Overcast  
Wind Chill: 35°   Ceiling: 6000
Heat Index: 35°   Visibility: 10mi
Dew Point: 35°   Wind: 3mph
Humidity: 100%   Direction: 190°S
Pressure: 30.12"   Gusts: NA
Location:  44.7595°N, 117.716°W
Report Text: KBKE 221453Z AUTO 19003KT 10SM BKN060 OVC075 02/02 A3012 RMK AO2 RAE17 SLP215 P0001 60002 T00170017 51005 TSNO
Loading
Personal Weather Stations






























Interactive Weather Map New forecast layout! Learn more

10-Day Weather Forecast

Advertisements
Track Severe Weather on mobile